Time;durP1;ratioP1;P1;durP2;ratioP2;P2;SDS_P1;SDS_P2;PMS_P1;PMS_P2;Temp;Humidity;BMP_temperature;BMP_pressure;BME280_temperature;BME280_humidity;BME280_pressure;Samples;Min_cycle;Max_cycle;Signal;HPM_P1;HPM_P2
2022/02/20 00:02:10;;;;;;;7.47;4.65;;;;;;;;;;5085738;28;20047;-63
2022/02/20 00:04:38;;;;;;;6.72;4.95;;;;;;;;;;5084630;28;20104;-64
2022/02/20 00:07:04;;;;;;;6.90;5.03;;;;;;;;;;5077931;28;20040;-63
2022/02/20 00:09:30;;;;;;;7.85;5.10;;;;;;;;;;5099540;28;20531;-63
2022/02/20 00:11:57;;;;;;;8.65;5.75;;;;;;;;;;5085100;28;20048;-64
2022/02/20 00:14:23;;;;;;;8.57;5.80;;;;;;;;;;5082973;28;20120;-63
2022/02/20 00:16:49;;;;;;;9.85;6.22;;;;;;;;;;5084239;28;20412;-64
2022/02/20 00:19:15;;;;;;;8.68;5.65;;;;;;;;;;5084285;28;20131;-64
2022/02/20 00:21:41;;;;;;;8.55;5.28;;;;;;;;;;5088219;28;20052;-64
2022/02/20 00:24:07;;;;;;;8.70;5.68;;;;;;;;;;5104563;28;20040;-64
2022/02/20 00:26:33;;;;;;;7.78;5.32;;;;;;;;;;5099985;28;20048;-64
2022/02/20 00:28:59;;;;;;;7.90;6.00;;;;;;;;;;5079815;28;20036;-64
2022/02/20 00:31:25;;;;;;;7.47;5.10;;;;;;;;;;5079690;28;20044;-64
2022/02/20 00:33:51;;;;;;;7.55;5.28;;;;;;;;;;5092493;28;20044;-64
2022/02/20 00:36:17;;;;;;;8.60;4.57;;;;;;;;;;5103026;28;20114;-64
2022/02/20 00:38:44;;;;;;;9.77;4.53;;;;;;;;;;5096414;28;20048;-63
2022/02/20 00:41:10;;;;;;;6.68;4.13;;;;;;;;;;5092403;28;20050;-64
2022/02/20 00:43:36;;;;;;;7.40;4.05;;;;;;;;;;5104563;28;20060;-64
2022/02/20 00:46:03;;;;;;;5.55;3.40;;;;;;;;;;5103304;28;20056;-64
2022/02/20 00:48:29;;;;;;;6.15;3.90;;;;;;;;;;5103223;28;20040;-64
2022/02/20 00:50:55;;;;;;;5.07;3.50;;;;;;;;;;5088113;28;20051;-64
2022/02/20 00:53:21;;;;;;;8.07;3.90;;;;;;;;;;5103013;28;20083;-64
2022/02/20 00:55:47;;;;;;;10.30;4.00;;;;;;;;;;5094805;28;20135;-64
2022/02/20 00:58:13;;;;;;;6.78;3.40;;;;;;;;;;5084240;28;20101;-64
2022/02/20 01:00:39;;;;;;;8.25;4.13;;;;;;;;;;5084321;28;20033;-64
2022/02/20 01:03:06;;;;;;;6.00;3.70;;;;;;;;;;5082523;28;20040;-64
2022/02/20 01:05:32;;;;;;;9.02;4.45;;;;;;;;;;5084512;28;20093;-64
2022/02/20 01:07:58;;;;;;;7.68;3.85;;;;;;;;;;5083490;28;20049;-64
2022/02/20 01:10:24;;;;;;;7.53;4.30;;;;;;;;;;5089502;28;20113;-64
2022/02/20 01:12:51;;;;;;;8.00;3.45;;;;;;;;;;5104152;28;20238;-65
2022/02/20 01:15:18;;;;;;;6.85;3.40;;;;;;;;;;5104356;28;20070;-64
2022/02/20 01:17:44;;;;;;;6.60;4.20;;;;;;;;;;5103028;28;20059;-63
2022/02/20 01:20:11;;;;;;;5.50;4.50;;;;;;;;;;5101148;28;20044;-64
2022/02/20 01:22:37;;;;;;;5.25;3.33;;;;;;;;;;5086500;28;20071;-63
2022/02/20 01:25:05;;;;;;;5.50;4.43;;;;;;;;;;5088220;28;20044;-63
2022/02/20 01:27:31;;;;;;;5.45;3.95;;;;;;;;;;5086185;28;20040;-64
2022/02/20 01:29:57;;;;;;;6.90;3.85;;;;;;;;;;5087149;28;20045;-64
2022/02/20 01:32:23;;;;;;;4.82;3.58;;;;;;;;;;5087709;28;20567;-64
2022/02/20 01:34:49;;;;;;;4.40;3.53;;;;;;;;;;5087725;28;20036;-64
2022/02/20 01:37:15;;;;;;;8.48;4.15;;;;;;;;;;5087104;28;20041;-64
2022/02/20 01:39:41;;;;;;;5.20;3.67;;;;;;;;;;5089905;28;20050;-64
2022/02/20 01:42:07;;;;;;;4.43;3.00;;;;;;;;;;5107689;28;20492;-65
2022/02/20 01:44:34;;;;;;;4.95;3.10;;;;;;;;;;5104381;28;20056;-64
2022/02/20 01:47:05;;;;;;;6.05;3.38;;;;;;;;;;5087812;28;20123;-64
2022/02/20 01:49:31;;;;;;;3.08;2.75;;;;;;;;;;5087786;28;20060;-64
2022/02/20 01:51:57;;;;;;;4.60;3.42;;;;;;;;;;5107337;28;20052;-64
2022/02/20 01:54:23;;;;;;;4.45;2.53;;;;;;;;;;5106553;28;20044;-64
2022/02/20 01:56:50;;;;;;;4.20;3.47;;;;;;;;;;5107831;28;20044;-64
2022/02/20 01:59:17;;;;;;;4.15;2.80;;;;;;;;;;5088622;28;20040;-63
2022/02/20 02:01:43;;;;;;;5.78;2.80;;;;;;;;;;5087461;28;20155;-63
2022/02/20 02:04:09;;;;;;;3.65;2.50;;;;;;;;;;5087385;28;20045;-63
2022/02/20 02:06:35;;;;;;;5.10;3.10;;;;;;;;;;5085281;28;20044;-64
2022/02/20 02:09:01;;;;;;;3.67;2.95;;;;;;;;;;5085448;28;20060;-64
2022/02/20 02:11:27;;;;;;;3.90;2.78;;;;;;;;;;5087151;28;20040;-64
2022/02/20 02:13:54;;;;;;;2.10;1.90;;;;;;;;;;5067109;28;20127;-64
2022/02/20 02:16:21;;;;;;;4.18;3.17;;;;;;;;;;5082647;28;20077;-64
2022/02/20 02:18:48;;;;;;;3.75;2.65;;;;;;;;;;5066962;28;20048;-64
2022/02/20 02:21:14;;;;;;;3.88;3.00;;;;;;;;;;5094157;28;20089;-64
2022/02/20 02:23:40;;;;;;;3.13;2.53;;;;;;;;;;5089217;28;20044;-64
2022/02/20 02:26:06;;;;;;;3.38;3.00;;;;;;;;;;5086800;28;20080;-64
2022/02/20 02:28:34;;;;;;;3.78;3.30;;;;;;;;;;5087041;28;20086;-64
2022/02/20 02:31:07;;;;;;;4.15;3.35;;;;;;;;;;5085167;28;20048;-64
2022/02/20 02:33:34;;;;;;;3.40;3.10;;;;;;;;;;5090354;28;20052;-64
2022/02/20 02:36:00;;;;;;;4.93;3.80;;;;;;;;;;5086404;28;20043;-64
2022/02/20 02:38:27;;;;;;;5.53;3.97;;;;;;;;;;5084851;28;20059;-64
2022/02/20 02:40:59;;;;;;;3.95;3.55;;;;;;;;;;5092710;28;20048;-64
2022/02/20 02:43:25;;;;;;;5.85;4.68;;;;;;;;;;5106943;28;20044;-63
2022/02/20 02:45:52;;;;;;;5.70;4.05;;;;;;;;;;5096264;28;20123;-64
2022/02/20 02:48:18;;;;;;;6.25;4.10;;;;;;;;;;5086183;28;20102;-64
2022/02/20 02:50:46;;;;;;;4.25;3.53;;;;;;;;;;5086440;28;20109;-64
2022/02/20 02:53:14;;;;;;;4.18;3.38;;;;;;;;;;5086840;28;20079;-63
2022/02/20 02:55:44;;;;;;;6.53;3.25;;;;;;;;;;5086395;28;20044;-63
2022/02/20 02:58:10;;;;;;;5.35;4.45;;;;;;;;;;5086374;28;20056;-64
2022/02/20 03:00:36;;;;;;;5.30;4.65;;;;;;;;;;5098216;28;20051;-64
2022/02/20 03:03:02;;;;;;;5.35;4.57;;;;;;;;;;5106581;28;20077;-64
2022/02/20 03:05:28;;;;;;;6.55;4.63;;;;;;;;;;5105185;28;20112;-64
2022/02/20 03:07:54;;;;;;;6.82;4.03;;;;;;;;;;5103678;28;20036;-64
2022/02/20 03:10:20;;;;;;;7.57;4.75;;;;;;;;;;5095673;28;20587;-64
2022/02/20 03:12:46;;;;;;;4.53;3.78;;;;;;;;;;5106354;28;20199;-64
2022/02/20 03:15:13;;;;;;;8.70;4.28;;;;;;;;;;5106480;28;20059;-64
2022/02/20 03:17:39;;;;;;;6.30;4.50;;;;;;;;;;5106126;28;20048;-64
2022/02/20 03:20:05;;;;;;;7.00;4.10;;;;;;;;;;5095127;28;20049;-64
2022/02/20 03:22:31;;;;;;;7.03;4.47;;;;;;;;;;5085469;28;20048;-64
2022/02/20 03:24:57;;;;;;;6.93;4.82;;;;;;;;;;5084797;28;20041;-64
2022/02/20 03:27:23;;;;;;;7.50;4.93;;;;;;;;;;5085778;28;20048;-64
2022/02/20 03:29:49;;;;;;;9.13;4.95;;;;;;;;;;5091271;28;20496;-64
2022/02/20 03:32:16;;;;;;;7.72;5.70;;;;;;;;;;5104774;28;20047;-64
2022/02/20 03:34:42;;;;;;;6.72;4.72;;;;;;;;;;5084288;28;20072;-64
2022/02/20 03:37:08;;;;;;;7.80;5.35;;;;;;;;;;5084993;28;20051;-63
2022/02/20 03:39:34;;;;;;;7.22;4.68;;;;;;;;;;5104176;28;20480;-64
2022/02/20 03:42:02;;;;;;;6.55;5.30;;;;;;;;;;5105436;28;20078;-64
2022/02/20 03:44:29;;;;;;;9.40;5.38;;;;;;;;;;5105834;28;20122;-64
2022/02/20 03:46:55;;;;;;;6.38;4.53;;;;;;;;;;5105513;28;20122;-64
2022/02/20 03:49:21;;;;;;;7.88;4.43;;;;;;;;;;5088411;28;20072;-63
2022/02/20 03:51:47;;;;;;;10.10;4.68;;;;;;;;;;5084665;28;20037;-63
2022/02/20 03:54:13;;;;;;;7.28;5.10;;;;;;;;;;5085550;28;20120;-64
2022/02/20 03:56:39;;;;;;;4.95;4.40;;;;;;;;;;5085231;28;20075;-63
2022/02/20 03:59:05;;;;;;;5.00;4.22;;;;;;;;;;5085358;28;20066;-63
2022/02/20 04:01:31;;;;;;;6.65;4.53;;;;;;;;;;5085137;28;20230;-63
2022/02/20 04:03:58;;;;;;;5.30;4.00;;;;;;;;;;5084836;28;20124;-63
2022/02/20 04:06:24;;;;;;;6.78;4.97;;;;;;;;;;5082638;28;20049;-63
2022/02/20 04:08:50;;;;;;;6.65;4.32;;;;;;;;;;5086771;28;20554;-63
2022/02/20 04:11:16;;;;;;;6.32;4.55;;;;;;;;;;5102111;28;20051;-63
2022/02/20 04:13:42;;;;;;;6.43;4.78;;;;;;;;;;5099641;28;20070;-63
2022/02/20 04:16:08;;;;;;;6.97;4.30;;;;;;;;;;5083544;28;20056;-63
2022/02/20 04:18:34;;;;;;;8.15;4.65;;;;;;;;;;5094432;28;20044;-63
2022/02/20 04:21:00;;;;;;;7.68;4.65;;;;;;;;;;5104601;28;20079;-63
2022/02/20 04:23:30;;;;;;;8.10;4.65;;;;;;;;;;5105439;28;20076;-63
2022/02/20 04:26:00;;;;;;;5.35;4.03;;;;;;;;;;5103811;28;20083;-63
2022/02/20 04:28:27;;;;;;;5.65;4.00;;;;;;;;;;5104893;28;20048;-64
2022/02/20 04:30:53;;;;;;;5.83;4.20;;;;;;;;;;5103598;28;20051;-63
2022/02/20 04:33:19;;;;;;;6.45;4.22;;;;;;;;;;5103623;28;20308;-63
2022/02/20 04:35:45;;;;;;;6.05;4.43;;;;;;;;;;5104631;28;20051;-63
2022/02/20 04:38:11;;;;;;;5.20;4.10;;;;;;;;;;5101086;28;20048;-63
2022/02/20 04:40:37;;;;;;;5.95;4.05;;;;;;;;;;5103535;28;20052;-63
2022/02/20 04:43:03;;;;;;;18.77;5.25;;;;;;;;;;5103510;28;20578;-63
2022/02/20 04:45:30;;;;;;;6.50;3.47;;;;;;;;;;5104774;28;20043;-63
2022/02/20 04:47:56;;;;;;;7.93;3.90;;;;;;;;;;5088652;28;20048;-63
2022/02/20 04:50:22;;;;;;;6.10;3.65;;;;;;;;;;5083939;28;20534;-62
2022/02/20 04:52:48;;;;;;;4.55;3.42;;;;;;;;;;5084095;28;20052;-63
2022/02/20 04:55:14;;;;;;;9.57;4.68;;;;;;;;;;5083400;28;20044;-63
2022/02/20 04:57:41;;;;;;;6.80;3.90;;;;;;;;;;5088860;28;20052;-64
2022/02/20 05:00:08;;;;;;;7.05;3.97;;;;;;;;;;5084147;28;20048;-64
2022/02/20 05:02:35;;;;;;;9.43;3.92;;;;;;;;;;5082988;28;20132;-64
2022/02/20 05:05:01;;;;;;;6.35;4.07;;;;;;;;;;5083900;28;20045;-64
2022/02/20 05:07:27;;;;;;;5.70;3.53;;;;;;;;;;5084040;28;20044;-63
2022/02/20 05:09:53;;;;;;;6.80;3.38;;;;;;;;;;5084072;28;20091;-63
2022/02/20 05:12:19;;;;;;;4.68;3.42;;;;;;;;;;5084159;28;20051;-63
2022/02/20 05:14:45;;;;;;;6.95;3.38;;;;;;;;;;5084153;28;20044;-62
2022/02/20 05:17:12;;;;;;;4.85;2.90;;;;;;;;;;5091964;28;20037;-63
2022/02/20 05:19:39;;;;;;;9.20;3.30;;;;;;;;;;5104180;28;20044;-63
2022/02/20 05:22:05;;;;;;;4.20;2.70;;;;;;;;;;5103872;28;20052;-63
2022/02/20 05:24:31;;;;;;;4.22;2.80;;;;;;;;;;5085611;28;20185;-63
2022/02/20 05:26:57;;;;;;;8.70;3.17;;;;;;;;;;5084184;28;20043;-63
2022/02/20 05:29:23;;;;;;;5.45;3.22;;;;;;;;;;5083810;28;20070;-63
2022/02/20 05:31:49;;;;;;;9.70;4.07;;;;;;;;;;5083494;28;20567;-63
2022/02/20 05:34:15;;;;;;;8.05;3.72;;;;;;;;;;5083789;28;20120;-63
2022/02/20 05:36:41;;;;;;;4.57;3.30;;;;;;;;;;5087041;28;20129;-63
2022/02/20 05:39:07;;;;;;;6.63;3.08;;;;;;;;;;5103376;28;20515;-63
2022/02/20 05:41:34;;;;;;;8.50;3.58;;;;;;;;;;5088993;28;20048;-63
2022/02/20 05:44:00;;;;;;;7.43;3.40;;;;;;;;;;5083342;28;20100;-64
2022/02/20 05:46:26;;;;;;;3.92;3.10;;;;;;;;;;5083948;28;20048;-64
2022/02/20 05:48:52;;;;;;;6.50;3.53;;;;;;;;;;5092460;28;20066;-64
2022/02/20 05:51:18;;;;;;;8.55;2.97;;;;;;;;;;5103244;28;20052;-64
2022/02/20 05:53:44;;;;;;;5.57;3.78;;;;;;;;;;5098398;28;20037;-64
2022/02/20 05:56:10;;;;;;;7.00;3.95;;;;;;;;;;5083686;28;20102;-65
2022/02/20 05:58:37;;;;;;;6.82;3.83;;;;;;;;;;5097670;28;20047;-65
2022/02/20 06:01:03;;;;;;;4.97;2.72;;;;;;;;;;5102631;28;20053;-64
2022/02/20 06:03:29;;;;;;;8.60;3.53;;;;;;;;;;5102307;28;20048;-64
2022/02/20 06:05:55;;;;;;;9.43;3.78;;;;;;;;;;5104650;28;20127;-65
2022/02/20 06:08:21;;;;;;;6.10;3.10;;;;;;;;;;5095734;28;20217;-64
2022/02/20 06:10:47;;;;;;;5.85;2.95;;;;;;;;;;5087539;28;20138;-65
2022/02/20 06:13:14;;;;;;;9.88;3.17;;;;;;;;;;5085651;28;20081;-65
2022/02/20 06:15:40;;;;;;;4.03;2.92;;;;;;;;;;5085920;28;20052;-64
2022/02/20 06:18:06;;;;;;;6.22;2.78;;;;;;;;;;5087257;28;20050;-64
2022/02/20 06:20:32;;;;;;;4.85;2.78;;;;;;;;;;5087030;28;20097;-65
2022/02/20 06:22:58;;;;;;;13.93;3.45;;;;;;;;;;5085682;28;20048;-65
2022/02/20 06:25:24;;;;;;;5.88;3.78;;;;;;;;;;5087125;28;20053;-65
2022/02/20 06:27:52;;;;;;;11.15;3.15;;;;;;;;;;5086858;28;20040;-65
2022/02/20 06:30:19;;;;;;;5.38;3.45;;;;;;;;;;5087074;28;20036;-65
2022/02/20 06:32:45;;;;;;;6.82;2.22;;;;;;;;;;5086567;28;20070;-65
2022/02/20 06:35:11;;;;;;;8.20;2.97;;;;;;;;;;5087487;28;20052;-64
2022/02/20 06:37:37;;;;;;;8.73;3.47;;;;;;;;;;5084872;28;20044;-64
2022/02/20 06:40:04;;;;;;;6.97;3.15;;;;;;;;;;5087367;28;20052;-64
2022/02/20 06:42:30;;;;;;;7.18;2.38;;;;;;;;;;5085275;28;20070;-64
2022/02/20 06:44:56;;;;;;;7.55;3.03;;;;;;;;;;5085347;28;20404;-63
2022/02/20 06:47:22;;;;;;;8.32;3.63;;;;;;;;;;5086618;28;20045;-64
2022/02/20 06:49:48;;;;;;;8.15;3.83;;;;;;;;;;5087292;28;20048;-64
2022/02/20 06:52:14;;;;;;;12.70;4.13;;;;;;;;;;5086052;28;20048;-64
2022/02/20 06:54:40;;;;;;;9.52;4.10;;;;;;;;;;5102628;28;20452;-64
2022/02/20 06:57:07;;;;;;;12.25;5.65;;;;;;;;;;5106552;28;20046;-64
2022/02/20 06:59:33;;;;;;;4.50;3.70;;;;;;;;;;5106640;28;20103;-64
2022/02/20 07:01:59;;;;;;;9.25;4.85;;;;;;;;;;5105319;28;20047;-64
2022/02/20 07:04:25;;;;;;;11.82;5.30;;;;;;;;;;5090440;28;20040;-64
2022/02/20 07:06:51;;;;;;;7.70;4.97;;;;;;;;;;5085222;28;20196;-64
2022/02/20 07:09:18;;;;;;;7.30;4.63;;;;;;;;;;5086258;28;20411;-64
2022/02/20 07:11:44;;;;;;;14.18;5.57;;;;;;;;;;5092959;28;20044;-64
2022/02/20 07:14:10;;;;;;;9.35;4.88;;;;;;;;;;5098895;28;20054;-64
2022/02/20 07:16:36;;;;;;;10.75;4.47;;;;;;;;;;5085903;28;20216;-64
2022/02/20 07:19:03;;;;;;;12.27;4.93;;;;;;;;;;5084871;28;20100;-64
2022/02/20 07:21:29;;;;;;;9.82;5.47;;;;;;;;;;5083783;28;20044;-64
2022/02/20 07:23:58;;;;;;;9.65;4.85;;;;;;;;;;5086242;28;20082;-64
2022/02/20 07:26:28;;;;;;;8.90;5.30;;;;;;;;;;5085566;28;20062;-64
2022/02/20 07:28:54;;;;;;;11.52;5.00;;;;;;;;;;5099142;28;20059;-64
2022/02/20 07:31:20;;;;;;;11.35;5.55;;;;;;;;;;5105713;28;20520;-63
2022/02/20 07:33:47;;;;;;;9.27;4.55;;;;;;;;;;5098519;28;20044;-64
2022/02/20 07:36:13;;;;;;;11.45;5.18;;;;;;;;;;5085106;28;20068;-64
2022/02/20 07:38:39;;;;;;;9.93;5.20;;;;;;;;;;5085824;28;20175;-65
2022/02/20 07:41:05;;;;;;;8.23;4.93;;;;;;;;;;5105464;28;20135;-65
2022/02/20 07:43:32;;;;;;;14.38;5.57;;;;;;;;;;5105733;28;20050;-65
2022/02/20 07:45:58;;;;;;;10.57;5.20;;;;;;;;;;5105570;28;20052;-64
2022/02/20 07:48:24;;;;;;;13.25;5.75;;;;;;;;;;5095800;28;20416;-65
2022/02/20 07:50:50;;;;;;;12.68;5.80;;;;;;;;;;5083029;28;20053;-64
2022/02/20 07:53:16;;;;;;;9.70;5.70;;;;;;;;;;5085746;28;20045;-64
2022/02/20 07:55:42;;;;;;;11.10;5.68;;;;;;;;;;5084079;28;20097;-64
2022/02/20 07:58:11;;;;;;;8.45;5.63;;;;;;;;;;5085309;28;20049;-63
2022/02/20 08:00:37;;;;;;;11.75;5.88;;;;;;;;;;5085104;28;20504;-64
2022/02/20 08:03:04;;;;;;;7.53;5.53;;;;;;;;;;5085043;28;20075;-66
2022/02/20 08:05:30;;;;;;;7.82;5.22;;;;;;;;;;5083311;28;20049;-66
2022/02/20 08:07:56;;;;;;;10.18;5.68;;;;;;;;;;5083212;28;20044;-64
2022/02/20 08:10:22;;;;;;;11.80;5.78;;;;;;;;;;5085649;28;20048;-64
2022/02/20 08:12:48;;;;;;;11.70;6.45;;;;;;;;;;5089414;28;20119;-63
2022/02/20 08:15:15;;;;;;;7.65;5.15;;;;;;;;;;5083391;28;20051;-65
2022/02/20 08:17:42;;;;;;;10.50;5.85;;;;;;;;;;5104738;28;20042;-65
2022/02/20 08:20:08;;;;;;;11.07;5.50;;;;;;;;;;5099133;28;20040;-64
2022/02/20 08:22:35;;;;;;;11.23;5.93;;;;;;;;;;5092210;28;20053;-65
2022/02/20 08:25:01;;;;;;;9.82;6.20;;;;;;;;;;5086253;28;20119;-65
2022/02/20 08:27:27;;;;;;;12.48;6.50;;;;;;;;;;5088795;28;20074;-65
2022/02/20 08:29:54;;;;;;;12.93;5.82;;;;;;;;;;5088018;28;20041;-65
2022/02/20 08:32:20;;;;;;;12.07;5.90;;;;;;;;;;5086066;28;20048;-66
2022/02/20 08:34:47;;;;;;;9.65;5.70;;;;;;;;;;5093459;28;20078;-66
2022/02/20 08:37:13;;;;;;;10.25;6.50;;;;;;;;;;5084694;28;20639;-64
2022/02/20 08:39:39;;;;;;;13.35;6.70;;;;;;;;;;5082876;28;20095;-65
2022/02/20 08:42:05;;;;;;;9.70;5.97;;;;;;;;;;5081363;28;20069;-64
2022/02/20 08:44:34;;;;;;;9.88;5.50;;;;;;;;;;5079120;28;20049;-65
2022/02/20 08:47:01;;;;;;;11.18;6.00;;;;;;;;;;5065210;28;20056;-65
2022/02/20 08:49:27;;;;;;;10.10;6.80;;;;;;;;;;5082626;28;20101;-63
2022/02/20 08:51:53;;;;;;;9.70;7.20;;;;;;;;;;5080799;28;20052;-64
2022/02/20 08:54:20;;;;;;;9.85;6.32;;;;;;;;;;5095716;28;20253;-65
2022/02/20 08:56:46;;;;;;;8.38;5.82;;;;;;;;;;5073647;28;20478;-65
2022/02/20 08:59:12;;;;;;;10.60;6.88;;;;;;;;;;5079416;28;20045;-64
2022/02/20 09:01:38;;;;;;;15.32;8.48;;;;;;;;;;5076171;28;20497;-65
2022/02/20 09:04:04;;;;;;;15.15;9.30;;;;;;;;;;5076292;28;20050;-64
2022/02/20 09:06:35;;;;;;;11.63;7.35;;;;;;;;;;5094108;28;20060;-65
2022/02/20 09:09:01;;;;;;;11.70;7.97;;;;;;;;;;5095681;28;20062;-64
2022/02/20 09:11:31;;;;;;;14.70;9.27;;;;;;;;;;5083306;28;20072;-65
2022/02/20 09:13:57;;;;;;;11.57;7.65;;;;;;;;;;5086743;28;20108;-64
2022/02/20 09:16:23;;;;;;;15.05;8.65;;;;;;;;;;5083088;28;20108;-64
2022/02/20 09:18:49;;;;;;;13.18;7.57;;;;;;;;;;5081711;28;20178;-64
2022/02/20 09:21:16;;;;;;;17.10;9.23;;;;;;;;;;5082049;28;20428;-64
2022/02/20 09:23:42;;;;;;;17.17;9.88;;;;;;;;;;5078867;28;20104;-64
2022/02/20 09:26:08;;;;;;;16.65;8.93;;;;;;;;;;5082761;28;20471;-64
2022/02/20 09:28:34;;;;;;;17.50;8.48;;;;;;;;;;5074325;28;20053;-64
2022/02/20 09:31:01;;;;;;;14.57;6.28;;;;;;;;;;5086773;28;20120;-64
2022/02/20 09:33:27;;;;;;;14.13;7.57;;;;;;;;;;5077265;28;20044;-64
2022/02/20 09:35:53;;;;;;;8.50;4.82;;;;;;;;;;5067478;28;20045;-63
2022/02/20 09:38:19;;;;;;;14.15;4.93;;;;;;;;;;5067430;28;20623;-62
2022/02/20 09:40:46;;;;;;;16.50;4.65;;;;;;;;;;5073718;28;20033;-62
2022/02/20 09:43:13;;;;;;;15.48;4.57;;;;;;;;;;5087363;28;20036;-62
2022/02/20 09:45:39;;;;;;;20.47;5.87;;;;;;;;;;5086953;28;20052;-62
2022/02/20 09:48:05;;;;;;;23.48;4.70;;;;;;;;;;5081972;28;20488;-63
2022/02/20 09:50:32;;;;;;;21.73;5.63;;;;;;;;;;5082584;28;20056;-63
2022/02/20 09:52:59;;;;;;;30.00;4.95;;;;;;;;;;5089562;28;20093;-62
2022/02/20 09:55:25;;;;;;;24.17;4.40;;;;;;;;;;5087673;28;20466;-64
2022/02/20 09:57:54;;;;;;;25.38;4.50;;;;;;;;;;5099220;28;20071;-64
2022/02/20 10:00:20;;;;;;;29.88;5.05;;;;;;;;;;5086465;28;20079;-64
2022/02/20 10:02:46;;;;;;;20.08;5.00;;;;;;;;;;5081424;28;20478;-64
2022/02/20 10:05:17;;;;;;;31.67;5.35;;;;;;;;;;5080051;28;20623;-63
2022/02/20 10:07:43;;;;;;;28.98;4.47;;;;;;;;;;5087533;28;20036;-63
2022/02/20 10:10:21;;;;;;;20.48;4.60;;;;;;;;;;5079336;28;20450;-63
2022/02/20 10:12:55;;;;;;;27.40;5.55;;;;;;;;;;5078238;28;20086;-65
2022/02/20 10:15:40;;;;;;;29.10;4.57;;;;;;;;;;5091299;28;20072;-64
2022/02/20 10:18:06;;;;;;;24.42;4.65;;;;;;;;;;5086415;28;20056;-64
2022/02/20 10:20:33;;;;;;;38.03;6.35;;;;;;;;;;5088991;28;20071;-63
2022/02/20 10:23:01;;;;;;;41.28;6.03;;;;;;;;;;5087439;28;20037;-63
2022/02/20 10:25:27;;;;;;;31.55;5.57;;;;;;;;;;5085930;28;20128;-63
2022/02/20 10:27:54;;;;;;;34.72;5.82;;;;;;;;;;5085233;28;20045;-64
2022/02/20 10:30:22;;;;;;;30.35;6.25;;;;;;;;;;5100459;28;20098;-65
2022/02/20 10:33:22;;;;;;;37.80;6.47;;;;;;;;;;5085664;28;20044;-64
2022/02/20 10:35:49;;;;;;;23.83;5.47;;;;;;;;;;5039792;28;20556;-64
2022/02/20 10:38:17;;;;;;;24.50;4.68;;;;;;;;;;5052150;28;20152;-64
2022/02/20 10:40:47;;;;;;;34.83;5.80;;;;;;;;;;5054554;28;20060;-64
2022/02/20 10:43:27;;;;;;;27.60;6.65;;;;;;;;;;5042139;28;20048;-67
2022/02/20 10:46:11;;;;;;;27.63;7.25;;;;;;;;;;5041243;28;20091;-71
2022/02/20 10:48:45;;;;;;;28.63;6.72;;;;;;;;;;5043645;28;20060;-65
2022/02/20 10:51:12;;;;;;;36.75;7.43;;;;;;;;;;5045168;28;20044;-71
2022/02/20 10:53:39;;;;;;;44.78;7.25;;;;;;;;;;5056254;28;20565;-72
2022/02/20 10:56:05;;;;;;;38.58;6.88;;;;;;;;;;5058936;28;20072;-68
2022/02/20 10:58:34;;;;;;;43.97;7.38;;;;;;;;;;5046183;28;20465;-63
2022/02/20 11:01:01;;;;;;;33.72;6.25;;;;;;;;;;5065718;28;20045;-67
2022/02/20 11:03:28;;;;;;;34.50;6.68;;;;;;;;;;5055836;28;20095;-67
2022/02/20 11:05:55;;;;;;;35.17;6.55;;;;;;;;;;5042031;28;20179;-66
2022/02/20 11:08:26;;;;;;;36.40;7.13;;;;;;;;;;5040932;28;20045;-66
2022/02/20 11:10:52;;;;;;;35.28;5.85;;;;;;;;;;5083408;28;20060;-68
2022/02/20 11:13:19;;;;;;;54.05;7.93;;;;;;;;;;5073460;28;20052;-68
2022/02/20 11:15:46;;;;;;;38.50;8.75;;;;;;;;;;5096112;28;20053;-66
2022/02/20 11:18:17;;;;;;;38.83;7.75;;;;;;;;;;5071533;28;20049;-65
2022/02/20 11:20:44;;;;;;;34.45;6.38;;;;;;;;;;5073298;28;20044;-66
2022/02/20 11:23:12;;;;;;;44.92;7.18;;;;;;;;;;5092834;28;20040;-65
2022/02/20 11:25:39;;;;;;;52.22;7.75;;;;;;;;;;5094703;28;20059;-65
2022/02/20 11:28:05;;;;;;;46.20;8.18;;;;;;;;;;5077508;28;20037;-71
2022/02/20 11:30:32;;;;;;;42.55;8.15;;;;;;;;;;5095237;28;20140;-71
2022/02/20 11:33:00;;;;;;;40.35;6.88;;;;;;;;;;5072686;28;20480;-67
2022/02/20 11:35:26;;;;;;;41.22;7.05;;;;;;;;;;5084176;28;20083;-68
2022/02/20 11:37:56;;;;;;;42.25;8.70;;;;;;;;;;5087445;28;20052;-67
2022/02/20 11:40:22;;;;;;;50.72;9.07;;;;;;;;;;5102993;28;20044;-71
2022/02/20 11:43:01;;;;;;;51.70;7.53;;;;;;;;;;5084542;28;20103;-67
2022/02/20 11:45:31;;;;;;;57.00;7.47;;;;;;;;;;5093404;28;20489;-68
2022/02/20 11:48:07;;;;;;;44.95;7.30;;;;;;;;;;5073566;28;20052;-66
2022/02/20 11:50:33;;;;;;;37.00;8.00;;;;;;;;;;5075053;28;20494;-68
2022/02/20 11:53:02;;;;;;;40.58;8.68;;;;;;;;;;5075088;28;20055;-68
2022/02/20 11:55:42;;;;;;;43.15;8.48;;;;;;;;;;5079868;28;20060;-69
2022/02/20 11:58:16;;;;;;;35.78;7.47;;;;;;;;;;5065086;28;20158;-68
2022/02/20 12:00:54;;;;;;;51.42;8.07;;;;;;;;;;5083901;28;20158;-65
2022/02/20 12:03:27;;;;;;;35.17;6.63;;;;;;;;;;5073759;28;20561;-67
2022/02/20 12:06:14;;;;;;;48.38;7.75;;;;;;;;;;5091049;28;20424;-66
2022/02/20 12:08:40;;;;;;;39.75;8.65;;;;;;;;;;5079455;28;20058;-71
2022/02/20 12:11:18;;;;;;;49.15;8.50;;;;;;;;;;5096556;28;20056;-70
2022/02/20 12:13:49;;;;;;;49.75;9.00;;;;;;;;;;5082318;28;20055;-70
2022/02/20 12:16:19;;;;;;;52.35;10.85;;;;;;;;;;5080707;28;20066;-72
2022/02/20 12:19:03;;;;;;;47.40;9.13;;;;;;;;;;5072614;28;20051;-67
2022/02/20 12:21:31;;;;;;;41.40;8.68;;;;;;;;;;5081972;28;20112;-68
2022/02/20 12:23:58;;;;;;;46.15;8.27;;;;;;;;;;5082378;28;20104;-67
2022/02/20 12:26:47;;;;;;;45.47;8.15;;;;;;;;;;5089675;28;20048;-67
2022/02/20 12:29:15;;;;;;;63.78;9.23;;;;;;;;;;5082593;28;20129;-68
2022/02/20 12:32:00;;;;;;;41.50;9.10;;;;;;;;;;5083133;28;20048;-66
2022/02/20 12:34:46;;;;;;;51.78;8.55;;;;;;;;;;5082641;28;20059;-68
2022/02/20 12:37:12;;;;;;;66.22;9.68;;;;;;;;;;5074767;28;20067;-68
2022/02/20 12:39:38;;;;;;;48.08;7.25;;;;;;;;;;5072705;28;20049;-65
2022/02/20 12:42:05;;;;;;;52.85;8.05;;;;;;;;;;5091877;28;20045;-63
2022/02/20 12:44:31;;;;;;;51.70;9.60;;;;;;;;;;5083513;28;20043;-63
2022/02/20 12:46:58;;;;;;;51.63;7.85;;;;;;;;;;5080132;28;20041;-63
2022/02/20 12:49:24;;;;;;;45.60;8.18;;;;;;;;;;5082820;28;20100;-63
2022/02/20 12:52:01;;;;;;;55.17;8.27;;;;;;;;;;5075923;28;20053;-64
2022/02/20 12:54:29;;;;;;;60.17;9.38;;;;;;;;;;5071121;28;20037;-67
2022/02/20 12:57:05;;;;;;;37.08;7.88;;;;;;;;;;5080150;28;20052;-63
2022/02/20 12:59:32;;;;;;;59.47;9.45;;;;;;;;;;5069502;28;20055;-64
2022/02/20 13:02:05;;;;;;;50.40;9.18;;;;;;;;;;5078875;28;20053;-64
2022/02/20 13:04:31;;;;;;;55.13;8.52;;;;;;;;;;5094818;28;20044;-63
2022/02/20 13:07:01;;;;;;;61.95;9.57;;;;;;;;;;5078368;28;20048;-64
2022/02/20 13:09:48;;;;;;;56.05;10.20;;;;;;;;;;5094003;28;20078;-64
2022/02/20 13:12:18;;;;;;;48.92;7.63;;;;;;;;;;5075957;28;20043;-64
2022/02/20 13:15:01;;;;;;;59.50;9.52;;;;;;;;;;5092045;28;20117;-64
2022/02/20 13:18:08;;;;;;;51.25;9.15;;;;;;;;;;5076637;28;20075;-65
2022/02/20 13:20:34;;;;;;;54.83;9.18;;;;;;;;;;5057488;28;20152;-65
2022/02/20 13:23:12;;;;;;;52.83;9.68;;;;;;;;;;5059542;28;20037;-65
2022/02/20 13:25:38;;;;;;;46.08;9.82;;;;;;;;;;5059481;28;20045;-64
2022/02/20 13:28:05;;;;;;;47.63;8.60;;;;;;;;;;5056475;28;20041;-71
2022/02/20 13:30:35;;;;;;;59.40;9.43;;;;;;;;;;5041218;28;20072;-70
2022/02/20 13:33:08;;;;;;;44.25;8.98;;;;;;;;;;5060941;28;20041;-67
2022/02/20 13:35:34;;;;;;;59.00;8.68;;;;;;;;;;5043033;28;20049;-69
2022/02/20 13:38:04;;;;;;;53.20;9.88;;;;;;;;;;5043803;28;20068;-68
2022/02/20 13:40:31;;;;;;;62.90;9.43;;;;;;;;;;5060328;28;20510;-67
2022/02/20 13:43:00;;;;;;;53.28;9.85;;;;;;;;;;5043394;28;20049;-67
2022/02/20 13:45:27;;;;;;;60.10;11.60;;;;;;;;;;5077586;28;20057;-65
2022/02/20 13:47:53;;;;;;;71.97;9.77;;;;;;;;;;5043574;28;20044;-67
2022/02/20 13:50:20;;;;;;;48.67;7.90;;;;;;;;;;5044400;28;20524;-68
2022/02/20 13:52:46;;;;;;;52.45;9.45;;;;;;;;;;5105463;28;20041;-67
2022/02/20 13:55:20;;;;;;;50.80;8.95;;;;;;;;;;5086262;28;20068;-68
2022/02/20 13:57:46;;;;;;;60.25;8.88;;;;;;;;;;5078752;28;20063;-66
2022/02/20 14:00:13;;;;;;;53.50;9.55;;;;;;;;;;5077468;28;20157;-63
2022/02/20 14:02:42;;;;;;;57.67;9.30;;;;;;;;;;5077088;28;20045;-65
2022/02/20 14:05:09;;;;;;;73.03;10.32;;;;;;;;;;5076850;28;20113;-73
2022/02/20 14:07:42;;;;;;;55.15;9.05;;;;;;;;;;5074328;28;20045;-70
2022/02/20 14:10:13;;;;;;;46.65;8.43;;;;;;;;;;5082048;28;20111;-72
2022/02/20 14:12:40;;;;;;;50.97;8.02;;;;;;;;;;5091354;28;20037;-70
2022/02/20 14:15:20;;;;;;;46.03;9.90;;;;;;;;;;5081419;28;20061;-66
2022/02/20 14:18:01;;;;;;;43.90;7.43;;;;;;;;;;5068284;28;20492;-66
2022/02/20 14:20:35;;;;;;;55.00;10.43;;;;;;;;;;5087095;28;20101;-69
2022/02/20 14:23:12;;;;;;;58.33;9.68;;;;;;;;;;5093935;28;20051;-68
2022/02/20 14:25:39;;;;;;;43.88;7.82;;;;;;;;;;5106377;28;20106;-67
2022/02/20 14:28:05;;;;;;;41.72;9.50;;;;;;;;;;5073313;28;20070;-65
2022/02/20 14:30:33;;;;;;;61.20;8.70;;;;;;;;;;5075512;28;20052;-73
2022/02/20 14:33:00;;;;;;;62.63;8.57;;;;;;;;;;5074776;28;20049;-72
2022/02/20 14:35:27;;;;;;;41.55;8.85;;;;;;;;;;5073481;28;20036;-73
2022/02/20 14:37:57;;;;;;;36.63;7.88;;;;;;;;;;5066916;28;20047;-67
2022/02/20 14:40:23;;;;;;;47.10;7.82;;;;;;;;;;5081568;28;20040;-66